Time;durP1;ratioP1;P1;durP2;ratioP2;P2;SDS_P1;SDS_P2;PMS_P1;PMS_P2;Temp;Humidity;BMP_temperature;BMP_pressure;BME280_temperature;BME280_humidity;BME280_pressure;Samples;Min_cycle;Max_cycle;Signal;HPM_P1;HPM_P2
2022/02/18 00:03:15;;;;;;;9.55;1.65;;;;;;;4.80;92.92;99145.39;3539314;82;98661;-89
2022/02/18 00:08:16;;;;;;;7.60;1.43;;;;;;;4.57;95.01;99131.84;3538589;82;99197;-87
2022/02/18 00:13:19;;;;;;;7.03;1.30;;;;;;;4.34;95.33;99102.53;3538746;82;98644;-88
2022/02/18 00:18:20;;;;;;;3.77;0.80;;;;;;;4.19;95.44;99108.91;3546095;82;98228;-87
2022/02/18 00:23:21;;;;;;;3.00;0.80;;;;;;;4.10;95.98;99120.62;3509687;82;98469;-91
2022/02/18 00:28:22;;;;;;;2.07;0.40;;;;;;;4.00;95.91;99126.71;3542428;82;98463;-90
2022/02/18 00:33:23;;;;;;;8.13;1.80;;;;;;;3.91;96.03;99146.58;3541884;82;98581;-94
2022/02/18 00:38:24;;;;;;;9.37;2.30;;;;;;;3.82;96.48;99155.55;3535204;82;99405;-88
2022/02/18 00:43:25;;;;;;;10.13;1.80;;;;;;;3.62;96.61;99126.05;3538599;82;98704;-87
2022/02/18 00:48:26;;;;;;;10.73;2.40;;;;;;;3.71;96.72;99152.45;3541043;81;98391;-89
2022/02/18 00:53:27;;;;;;;8.53;2.20;;;;;;;3.70;96.78;99169.89;3544085;82;98794;-86
2022/02/18 00:58:28;;;;;;;10.13;2.17;;;;;;;3.72;96.64;99175.19;3535782;82;98291;-88
2022/02/18 01:03:29;;;;;;;14.53;2.10;;;;;;;3.76;95.75;99182.08;3540952;82;98811;-87
2022/02/18 01:08:29;;;;;;;21.27;2.87;;;;;;;3.88;95.25;99190.83;3527570;82;98580;-89
2022/02/18 01:13:31;;;;;;;14.23;2.33;;;;;;;3.94;94.20;99193.46;3535408;82;98730;-87
2022/02/18 01:18:31;;;;;;;15.67;2.60;;;;;;;4.03;93.49;99186.41;3527688;82;98579;-87
2022/02/18 01:23:32;;;;;;;12.23;2.67;;;;;;;4.09;92.08;99192.56;3541038;82;98737;-88
2022/02/18 01:28:33;;;;;;;10.77;2.10;;;;;;;4.17;91.24;99198.35;3533506;81;99083;-88
2022/02/18 01:33:35;;;;;;;12.17;1.87;;;;;;;4.21;91.27;99199.77;3545835;82;98923;-87
2022/02/18 01:38:35;;;;;;;11.40;2.37;;;;;;;4.20;90.14;99205.77;3541636;82;99586;-88
2022/02/18 01:43:37;;;;;;;12.63;2.10;;;;;;;4.29;88.91;99234.92;3532320;82;99116;-89
2022/02/18 01:48:38;;;;;;;15.40;3.20;;;;;;;4.33;88.86;99222.16;3508450;81;98489;-81
2022/02/18 01:53:39;;;;;;;14.13;2.20;;;;;;;4.36;88.03;99228.22;3542694;82;98157;-88
2022/02/18 01:58:41;;;;;;;11.50;1.97;;;;;;;4.43;88.41;99238.45;3541114;81;98644;-86
2022/02/18 02:03:42;;;;;;;9.03;2.40;;;;;;;4.48;87.42;99238.14;3542075;82;98925;-90
2022/02/18 02:08:43;;;;;;;12.77;2.63;;;;;;;4.49;87.91;99246.52;3536065;82;99547;-87
2022/02/18 02:13:45;;;;;;;10.45;1.87;;;;;;;4.49;88.06;99258.22;3537093;82;98535;-89
2022/02/18 02:18:46;;;;;;;12.10;3.13;;;;;;;4.50;87.56;99267.16;3532395;82;98878;-87
2022/02/18 02:23:47;;;;;;;20.45;3.58;;;;;;;4.49;87.02;99258.22;3545840;82;31404;-86
2022/02/18 02:28:48;;;;;;;12.10;2.20;;;;;;;4.50;86.72;99263.87;3539916;82;98604;-93
2022/02/18 02:33:48;;;;;;;13.00;2.37;;;;;;;4.46;86.69;99264.38;3542910;82;98711;-86
2022/02/18 02:38:51;;;;;;;13.30;3.60;;;;;;;4.41;86.72;99267.41;3543138;82;99649;-87
2022/02/18 02:43:52;;;;;;;11.93;2.35;;;;;;;4.40;86.30;99282.74;3541545;82;98910;-87
2022/02/18 02:48:53;;;;;;;9.93;2.40;;;;;;;4.35;86.15;99293.38;3537932;82;98837;-86
2022/02/18 02:53:53;;;;;;;11.73;2.17;;;;;;;4.31;86.12;99304.77;3541984;82;35183;-88
2022/02/18 02:58:56;;;;;;;11.73;1.87;;;;;;;4.28;86.25;99305.52;3539258;82;98724;-91
2022/02/18 03:03:56;;;;;;;11.90;1.87;;;;;;;4.25;85.75;99311.67;3538589;82;98774;-86
2022/02/18 03:08:57;;;;;;;9.00;1.50;;;;;;;4.22;86.08;99326.02;3527200;82;99587;-87
2022/02/18 03:13:58;;;;;;;8.23;2.10;;;;;;;4.20;86.07;99335.11;3542128;82;98546;-86
2022/02/18 03:18:59;;;;;;;10.40;3.17;;;;;;;4.14;86.48;99347.45;3530418;82;98579;-87
2022/02/18 03:24:00;;;;;;;14.07;2.57;;;;;;;4.11;86.62;99352.83;3548634;82;35822;-87
2022/02/18 03:29:01;;;;;;;9.07;1.90;;;;;;;4.09;86.63;99358.63;3545201;82;98655;-87
2022/02/18 03:34:02;;;;;;;10.37;2.47;;;;;;;4.08;86.66;99365.22;3539732;82;98740;-87
2022/02/18 03:39:03;;;;;;;14.75;1.90;;;;;;;4.07;86.54;99374.55;3528589;82;99014;-86
2022/02/18 03:44:08;;;;;;;9.58;1.75;;;;;;;4.05;86.66;99372.73;3534811;80;98754;-87
2022/02/18 03:49:09;;;;;;;8.10;1.97;;;;;;;4.02;87.10;99387.64;3533449;82;98558;-86
2022/02/18 03:54:09;;;;;;;13.27;1.93;;;;;;;3.96;87.38;99391.23;3532546;82;32306;-86
2022/02/18 03:59:10;;;;;;;14.53;1.97;;;;;;;3.92;87.64;99395.81;3528577;82;99053;-86
2022/02/18 04:04:11;;;;;;;11.70;2.17;;;;;;;3.91;87.75;99423.38;3538698;82;98680;-86
2022/02/18 04:09:12;;;;;;;10.57;1.60;;;;;;;3.90;87.94;99416.37;3530335;82;99768;-86
2022/02/18 04:14:13;;;;;;;15.13;2.67;;;;;;;3.91;87.65;99422.82;3540135;82;98876;-85
2022/02/18 04:19:14;;;;;;;12.37;1.60;;;;;;;3.89;87.78;99430.56;3535973;82;98851;-83
2022/02/18 04:24:15;;;;;;;13.63;1.90;;;;;;;3.88;88.06;99420.80;3542367;82;32253;-85
2022/02/18 04:29:16;;;;;;;10.35;1.65;;;;;;;3.85;87.99;99427.53;3533057;82;98603;-87
2022/02/18 04:34:16;;;;;;;15.27;2.17;;;;;;;3.83;88.26;99425.75;3544749;82;98383;-89
2022/02/18 04:39:17;;;;;;;13.57;2.00;;;;;;;3.84;88.48;99434.12;3533549;82;99786;-86
2022/02/18 04:44:18;;;;;;;17.23;2.33;;;;;;;3.85;88.56;99446.58;3549538;82;98495;-87
2022/02/18 04:49:19;;;;;;;11.33;2.20;;;;;;;3.85;88.61;99445.22;3542372;82;98777;-88
2022/02/18 04:54:20;;;;;;;11.73;2.13;;;;;;;3.85;88.52;99451.47;3553796;82;26401;-85
2022/02/18 04:59:21;;;;;;;6.77;1.70;;;;;;;3.89;88.28;99461.06;3532552;82;98122;-87
2022/02/18 05:04:23;;;;;;;8.27;2.03;;;;;;;3.93;88.33;99468.16;3548053;82;98596;-86
2022/02/18 05:09:23;;;;;;;9.10;2.13;;;;;;;3.96;88.23;99463.93;3526326;82;99698;-89
2022/02/18 05:14:24;;;;;;;14.40;2.30;;;;;;;3.98;87.83;99463.79;3539122;82;98643;-87
2022/02/18 05:19:25;;;;;;;12.83;2.13;;;;;;;4.04;87.61;99465.08;3547879;82;98745;-88
2022/02/18 05:24:26;;;;;;;10.70;2.30;;;;;;;4.06;87.55;99462.02;3548434;82;25699;-86
2022/02/18 05:29:27;;;;;;;9.87;2.73;;;;;;;4.06;87.57;99470.18;3536292;82;98661;-88
2022/02/18 05:34:28;;;;;;;15.33;3.10;;;;;;;4.00;87.15;99473.77;3545152;82;98205;-87
2022/02/18 05:39:29;;;;;;;18.23;3.17;;;;;;;3.95;87.35;99479.48;3534124;82;99830;-87
2022/02/18 05:44:32;;;;;;;13.80;2.27;;;;;;;3.92;87.54;99488.35;3527371;82;98983;-85
2022/02/18 05:49:32;;;;;;;7.78;2.50;;;;;;;3.87;87.73;99485.91;3534761;82;98967;-87
2022/02/18 05:54:33;;;;;;;10.23;1.80;;;;;;;3.83;87.81;99490.47;3547448;82;33027;-85
2022/02/18 05:59:35;;;;;;;11.68;2.37;;;;;;;3.80;87.98;99488.47;3502163;82;98638;-88
2022/02/18 06:04:36;;;;;;;12.13;2.20;;;;;;;3.75;88.25;99500.99;3535897;82;98614;-85
2022/02/18 06:09:37;;;;;;;7.42;2.35;;;;;;;3.71;88.26;99503.42;3533797;82;99539;-86
2022/02/18 06:14:38;;;;;;;13.07;2.40;;;;;;;3.68;88.40;99507.64;3536075;82;98620;-86
2022/02/18 06:19:39;;;;;;;15.93;3.00;;;;;;;3.66;88.41;99524.87;3523820;82;98914;-87
2022/02/18 06:24:40;;;;;;;8.80;1.90;;;;;;;3.63;88.33;99517.98;3553813;82;33043;-86
2022/02/18 06:29:41;;;;;;;11.28;2.62;;;;;;;3.59;88.45;99523.91;3533953;82;98387;-85
2022/02/18 06:34:42;;;;;;;12.97;2.37;;;;;;;3.57;88.39;99550.69;3556814;82;98646;-87
2022/02/18 06:39:43;;;;;;;15.40;2.37;;;;;;;3.56;88.26;99554.55;3531165;82;99540;-84
2022/02/18 06:44:45;;;;;;;9.30;2.10;;;;;;;3.57;88.24;99567.80;3509441;82;98805;-86
2022/02/18 06:49:46;;;;;;;12.63;1.93;;;;;;;3.59;88.27;99576.95;3534332;82;98584;-85
2022/02/18 06:54:47;;;;;;;9.47;2.07;;;;;;;3.58;88.14;99565.30;3536417;81;98851;-85
2022/02/18 06:59:48;;;;;;;10.97;2.30;;;;;;;3.63;88.44;99581.36;3543890;82;98080;-86
2022/02/18 07:04:48;;;;;;;13.10;2.40;;;;;;;3.67;88.65;99589.02;3539138;82;98691;-88
2022/02/18 07:09:49;;;;;;;13.10;2.73;;;;;;;3.70;88.82;99603.30;3530310;82;99592;-86
2022/02/18 07:14:54;;;;;;;9.57;2.60;;;;;;;3.75;88.56;99615.84;3533260;82;98416;-90
2022/02/18 07:19:56;;;;;;;9.65;2.08;;;;;;;3.78;88.43;99610.48;3528254;82;98635;-88
2022/02/18 07:24:57;;;;;;;13.10;2.15;;;;;;;3.84;88.24;99611.02;3529036;81;98981;-87
2022/02/18 07:29:58;;;;;;;11.47;2.20;;;;;;;3.88;88.12;99609.18;3529292;82;99058;-87
2022/02/18 07:34:59;;;;;;;8.03;2.47;;;;;;;3.94;88.34;99604.45;3501431;82;98657;-86
2022/02/18 07:40:01;;;;;;;14.43;2.53;;;;;;;4.02;88.12;99615.75;3523083;82;99375;-91
2022/02/18 07:45:02;;;;;;;11.33;2.53;;;;;;;4.10;88.11;99616.71;3526042;81;99317;-94
2022/02/18 07:50:06;;;;;;;13.43;2.50;;;;;;;4.15;87.65;99616.44;3523430;81;98172;-88
2022/02/18 07:55:07;;;;;;;14.03;2.75;;;;;;;4.21;87.90;99621.83;3530321;82;98920;-92
2022/02/18 08:00:10;;;;;;;14.60;2.80;;;;;;;4.29;87.58;99626.28;3528277;82;98212;-88
2022/02/18 08:05:11;;;;;;;14.20;2.60;;;;;;;4.33;87.55;99627.16;3529592;82;98652;-89
2022/02/18 08:10:13;;;;;;;11.33;2.77;;;;;;;4.39;87.31;99633.35;3522543;82;98446;-91
2022/02/18 08:15:15;;;;;;;15.53;4.28;;;;;;;4.47;87.36;99632.94;3532257;82;98814;-91
2022/02/18 08:20:16;;;;;;;10.45;2.50;;;;;;;4.54;87.32;99625.69;3522691;81;99044;-92
2022/02/18 08:25:17;;;;;;;12.97;2.43;;;;;;;4.64;87.29;99627.86;3528302;81;98795;-89
2022/02/18 08:30:18;;;;;;;11.40;3.13;;;;;;;4.73;87.14;99631.73;3523625;82;98291;-94
2022/02/18 08:35:19;;;;;;;11.80;1.90;;;;;;;4.83;86.77;99631.18;3537817;81;97498;-94
2022/02/18 08:40:22;;;;;;;13.07;2.60;;;;;;;4.96;86.51;99628.55;3529937;82;98498;-89
2022/02/18 08:45:23;;;;;;;16.23;2.77;;;;;;;5.12;86.15;99634.13;3524703;82;98810;-91
2022/02/18 08:50:24;;;;;;;14.93;3.57;;;;;;;5.29;85.55;99647.91;3524320;82;122076;-92
2022/02/18 08:55:25;;;;;;;15.60;2.80;;;;;;;5.49;85.39;99646.15;3502242;81;99064;-90
2022/02/18 09:00:27;;;;;;;11.97;2.57;;;;;;;5.78;85.57;99658.37;3528007;81;98453;-88
2022/02/18 09:05:28;;;;;;;11.77;2.57;;;;;;;6.07;85.78;99649.53;3531265;82;98912;-86
2022/02/18 09:10:30;;;;;;;12.53;3.13;;;;;;;6.38;84.62;99650.63;3524628;82;98663;-87
2022/02/18 09:15:31;;;;;;;14.73;3.33;;;;;;;6.72;84.86;99652.28;3526909;82;98762;-87
2022/02/18 09:20:33;;;;;;;12.40;2.80;;;;;;;7.65;82.74;99657.34;3522944;82;98876;-88
2022/02/18 09:25:35;;;;;;;11.50;2.92;;;;;;;7.65;82.74;99657.34;3530673;82;98793;-90
2022/02/18 09:30:45;;;;;;;13.45;2.83;;;;;;;8.13;81.96;99658.94;3526303;82;98968;-87
2022/02/18 09:35:49;;;;;;;14.10;2.27;;;;;;;8.42;81.03;99657.25;3532576;82;98890;-88
2022/02/18 09:40:50;;;;;;;10.55;2.20;;;;;;;8.66;77.43;99642.90;3518815;82;98411;-91
2022/02/18 09:45:51;;;;;;;13.23;2.80;;;;;;;8.78;77.52;99634.38;3503835;82;98605;-93
2022/02/18 09:50:52;;;;;;;16.87;4.13;;;;;;;9.22;76.05;99639.85;3528915;82;98731;-91
2022/02/18 09:55:58;;;;;;;10.83;2.47;;;;;;;9.41;74.78;99634.63;3537578;82;98431;-90
2022/02/18 10:00:59;;;;;;;10.63;2.40;;;;;;;9.68;74.80;99622.13;3541204;81;98498;-92
2022/02/18 10:06:00;;;;;;;11.23;2.70;;;;;;;9.97;72.73;99624.52;3545736;81;31604;-91
2022/02/18 10:11:07;;;;;;;9.97;2.23;;;;;;;10.29;73.92;99614.34;3536169;81;98762;-90
2022/02/18 10:16:25;;;;;;;12.98;2.50;;;;;;;10.71;72.92;99606.02;3549534;81;99113;-91
2022/02/18 10:21:32;;;;;;;8.90;1.72;;;;;;;10.93;70.89;99593.75;3527016;82;98768;-92
2022/02/18 10:26:40;;;;;;;13.20;2.60;;;;;;;10.92;68.92;99581.76;3547251;82;98659;-90
2022/02/18 10:31:41;;;;;;;10.67;2.90;;;;;;;10.94;65.90;99580.17;3534589;82;99169;-89
2022/02/18 10:36:46;;;;;;;12.73;2.60;;;;;;;10.77;66.16;99572.77;3537778;82;32341;-89
2022/02/18 10:41:57;;;;;;;7.47;2.15;;;;;;;10.75;66.05;99573.74;3533852;82;98468;-91
2022/02/18 10:47:05;;;;;;;14.20;2.65;;;;;;;10.60;65.69;99565.94;3526444;82;98995;-92
2022/02/18 10:52:05;;;;;;;15.00;3.92;;;;;;;10.79;66.22;99553.12;3531901;82;98105;-91
2022/02/18 10:57:25;;;;;;;11.40;2.62;;;;;;;10.73;62.24;99540.34;3520869;82;99057;-90
2022/02/18 11:02:53;;;;;;;12.47;3.67;;;;;;;10.55;63.68;99530.00;3540940;82;99229;-86
2022/02/18 11:07:51;;;;;;;13.80;2.33;;;;;;;10.37;64.23;99518.25;3521831;82;98908;-86
2022/02/18 11:12:55;;;;;;;9.10;2.33;;;;;;;10.53;64.76;99514.47;3535388;82;99348;-86
2022/02/18 11:17:56;;;;;;;12.85;3.27;;;;;;;10.55;63.64;99503.07;3535065;82;98685;-86
2022/02/18 11:22:58;;;;;;;11.10;2.37;;;;;;;10.39;62.80;99492.52;3536265;82;98596;-89
2022/02/18 11:28:01;;;;;;;10.50;2.25;;;;;;;10.23;63.26;99494.92;3525020;82;98958;-89
2022/02/18 11:33:54;;;;;;;17.92;3.37;;;;;;;10.14;64.02;99485.53;3536383;81;98641;-90
2022/02/18 11:44:02;;;;;;;9.13;2.47;;;;;;;9.85;64.30;99477.89;3784262;74;26097;-94
2022/02/18 11:49:07;;;;;;;13.13;3.05;;;;;;;9.78;64.42;99471.61;3588733;79;98457;-88
2022/02/18 11:54:29;;;;;;;13.65;3.25;;;;;;;9.66;63.58;99462.41;3559033;81;32322;-89
2022/02/18 11:59:47;;;;;;;9.45;2.80;;;;;;;9.55;63.40;99447.29;3557379;79;98666;-88
2022/02/18 12:04:56;;;;;;;11.40;3.27;;;;;;;9.50;64.72;99440.05;3579766;80;98120;-91
2022/02/18 12:10:06;;;;;;;16.15;3.67;;;;;;;9.45;65.01;99424.77;3560191;80;98512;-88
2022/02/18 12:15:14;;;;;;;13.22;3.50;;;;;;;9.44;63.53;99416.30;3588091;80;98497;-87
2022/02/18 12:20:25;;;;;;;13.35;3.33;;;;;;;9.40;63.71;99407.30;3608260;79;98405;-91
2022/02/18 12:25:30;;;;;;;12.25;2.65;;;;;;;9.29;64.65;99392.00;3613317;80;98447;-91
2022/02/18 12:30:36;;;;;;;9.28;2.37;;;;;;;9.28;65.12;99382.20;3600564;80;98381;-91
2022/02/18 12:35:39;;;;;;;10.70;2.85;;;;;;;9.31;65.63;99371.22;3594319;80;97568;-87
2022/02/18 12:40:45;;;;;;;10.88;3.72;;;;;;;9.32;65.32;99361.80;3601323;79;98424;-91
2022/02/18 12:45:53;;;;;;;9.73;3.62;;;;;;;9.33;66.23;99348.25;3623477;79;98832;-91
2022/02/18 12:50:55;;;;;;;8.18;3.52;;;;;;;9.43;66.70;99337.08;3586935;79;98252;-93
2022/02/18 12:55:56;;;;;;;14.93;3.33;;;;;;;9.51;66.87;99333.92;3615467;79;98354;-92
2022/02/18 13:00:57;;;;;;;10.90;2.72;;;;;;;9.51;66.15;99319.40;3605809;79;98449;-89
2022/02/18 13:06:03;;;;;;;13.23;3.27;;;;;;;9.43;65.29;99304.89;3611898;79;26167;-90
2022/02/18 13:11:15;;;;;;;11.33;3.37;;;;;;;9.36;65.62;99308.25;3610392;79;98329;-91
2022/02/18 13:16:19;;;;;;;16.25;4.30;;;;;;;9.25;66.32;99308.28;3625229;79;97531;-87
2022/02/18 13:21:20;;;;;;;12.10;4.20;;;;;;;9.20;66.28;99286.72;3593824;79;98852;-91
2022/02/18 13:26:27;;;;;;;11.23;3.37;;;;;;;9.14;66.36;99292.99;3618268;79;98229;-93
2022/02/18 13:31:27;;;;;;;;;;;;;;;9.07;67.26;99278.71;3598874;79;98457;-90
2022/02/18 13:36:29;;;;;;;14.20;4.33;;;;;;;9.03;67.51;99253.23;3596374;79;25895;-91
2022/02/18 13:41:37;;;;;;;16.00;4.13;;;;;;;9.01;68.56;99247.36;3596231;79;98185;-90
2022/02/18 13:46:41;;;;;;;12.35;4.10;;;;;;;9.04;68.87;99232.83;3605581;80;98664;-92
2022/02/18 13:51:51;;;;;;;12.90;3.60;;;;;;;9.04;69.37;99216.95;3599654;80;98830;-88
2022/02/18 13:57:06;;;;;;;17.15;5.35;;;;;;;9.04;69.57;99203.22;3594947;80;98500;-89
2022/02/18 14:02:20;;;;;;;11.83;4.90;;;;;;;9.01;69.70;99193.05;3607931;80;98460;-93
2022/02/18 14:07:30;;;;;;;17.55;6.00;;;;;;;9.00;69.58;99171.68;3586679;80;98646;-90
2022/02/18 14:12:54;;;;;;;13.20;3.70;;;;;;;9.00;70.20;99153.08;3607981;80;31578;-88
2022/02/18 14:17:52;;;;;;;11.75;3.40;;;;;;;8.98;69.93;99131.52;3600778;80;98453;-87
2022/02/18 14:22:57;;;;;;;15.27;3.53;;;;;;;8.98;70.18;99102.71;3606584;80;98254;-93
2022/02/18 14:28:15;;;;;;;11.03;2.97;;;;;;;8.99;69.37;99098.02;3588061;80;98827;-90
2022/02/18 14:33:29;;;;;;;14.70;5.28;;;;;;;8.97;69.23;99086.64;3604505;80;98495;-90
2022/02/18 14:38:30;;;;;;;12.65;3.77;;;;;;;8.96;69.41;99096.05;3598723;80;98868;-91
2022/02/18 14:43:31;;;;;;;11.43;2.63;;;;;;;8.89;69.76;99106.45;3604396;80;98523;-93
2022/02/18 14:48:32;;;;;;;8.20;2.90;;;;;;;8.71;69.55;99107.11;3597803;80;98468;-89
2022/02/18 14:53:33;;;;;;;10.80;2.60;;;;;;;8.41;72.58;99099.91;3609211;80;98191;-90
2022/02/18 14:58:34;;;;;;;13.90;4.50;;;;;;;8.11;74.70;99089.16;3594670;80;98351;-89
2022/02/18 15:03:36;;;;;;;14.47;5.97;;;;;;;7.88;76.40;99071.77;3620826;80;98546;-93
2022/02/18 15:08:37;;;;;;;12.20;5.12;;;;;;;7.71;77.98;99072.55;3631127;78;98727;-88
2022/02/18 15:13:38;;;;;;;15.30;5.20;;;;;;;7.52;79.89;99039.29;3651332;80;98799;-93
2022/02/18 15:18:38;;;;;;;14.70;4.67;;;;;;;7.34;80.91;99024.20;3643642;79;98284;-92
2022/02/18 15:23:40;;;;;;;13.60;5.37;;;;;;;7.22;82.94;99006.01;3608845;80;98694;-92
2022/02/18 15:28:42;;;;;;;11.93;4.72;;;;;;;7.11;83.37;98981.38;3645571;79;98728;-87
2022/02/18 15:44:09;;;;;;;13.90;5.70;;;;;;;6.93;85.67;98925.09;3560260;80;98534;-90
2022/02/18 15:49:10;;;;;;;12.63;4.53;;;;;;;6.85;85.77;98920.77;3594393;78;98932;-89
2022/02/18 15:54:11;;;;;;;11.80;3.90;;;;;;;6.73;86.89;98902.80;3600063;80;34791;-93
2022/02/18 15:59:13;;;;;;;9.80;3.50;;;;;;;6.59;87.67;98891.81;3572599;80;98776;-92
2022/02/18 16:04:20;;;;;;;11.93;3.55;;;;;;;6.44;89.13;98877.92;3586267;80;98078;-91
2022/02/18 16:09:18;;;;;;;10.48;3.72;;;;;;;6.26;89.52;98856.60;3597312;80;98610;-94
2022/02/18 16:14:19;;;;;;;18.27;5.67;;;;;;;6.15;89.71;98838.61;3593547;79;97625;-89
2022/02/18 16:19:24;;;;;;;12.63;4.30;;;;;;;6.03;90.74;98807.56;3572787;79;98515;-93
2022/02/18 16:24:25;;;;;;;11.33;3.85;;;;;;;5.93;91.19;98791.35;3608045;80;31878;-92
2022/02/18 16:29:27;;;;;;;15.78;5.72;;;;;;;5.89;91.73;98765.98;3575840;80;98431;-94
2022/02/18 16:34:29;;;;;;;18.23;6.33;;;;;;;5.81;92.48;98751.34;3594898;80;98202;-88
2022/02/18 16:39:37;;;;;;;32.05;10.55;;;;;;;5.76;92.91;98730.64;3597082;80;98445;-91
2022/02/18 16:44:38;;;;;;;67.58;24.00;;;;;;;5.71;93.35;98704.29;3607161;79;99351;-92
2022/02/18 16:49:39;;;;;;;21.80;8.23;;;;;;;5.68;93.90;98684.61;3565168;81;98951;-94
2022/02/18 16:54:40;;;;;;;23.23;8.03;;;;;;;5.64;94.33;98661.98;3553479;81;34851;-88
2022/02/18 16:59:41;;;;;;;46.20;18.60;;;;;;;5.63;94.71;98643.45;3563413;80;98625;-92
2022/02/18 17:04:42;;;;;;;61.40;21.97;;;;;;;5.63;95.33;98620.86;3545142;81;98912;-89
2022/02/18 17:09:43;;;;;;;53.10;17.83;;;;;;;5.59;95.90;98601.77;3555816;80;98858;-89
2022/02/18 17:14:44;;;;;;;16.47;5.97;;;;;;;5.59;95.58;98581.87;3600891;78;98730;-92
2022/02/18 17:19:45;;;;;;;16.23;5.50;;;;;;;5.52;96.16;98561.41;3570352;80;98726;-88
2022/02/18 17:24:46;;;;;;;26.57;10.67;;;;;;;5.57;96.98;98554.97;3576657;80;35306;-91
2022/02/18 17:29:47;;;;;;;19.10;7.30;;;;;;;5.57;97.02;98520.86;3579573;80;99076;-93
2022/02/18 17:34:48;;;;;;;21.05;8.43;;;;;;;5.56;97.47;98502.94;3589004;80;97935;-90
2022/02/18 17:39:50;;;;;;;25.37;9.00;;;;;;;5.55;98.32;98470.02;3576695;80;98928;-90
2022/02/18 17:44:52;;;;;;;24.12;7.47;;;;;;;5.53;98.96;98468.84;3555032;80;98475;-95
2022/02/18 17:49:53;;;;;;;16.77;6.72;;;;;;;5.55;100.00;98462.40;3582340;80;98217;-90
2022/02/18 17:54:56;;;;;;;18.30;7.90;;;;;;;5.54;100.00;98457.55;3564862;80;99198;-89
2022/02/18 17:59:59;;;;;;;18.32;8.23;;;;;;;5.56;100.00;98428.52;3564679;80;98826;-94
2022/02/18 18:05:00;;;;;;;24.07;8.33;;;;;;;5.57;100.00;98417.79;3565220;81;98948;-91
2022/02/18 18:10:02;;;;;;;19.13;8.27;;;;;;;5.60;100.00;98406.87;3576136;80;99073;-96
2022/02/18 18:15:04;;;;;;;24.95;9.40;;;;;;;5.63;100.00;98392.42;3583927;77;99169;-91
2022/02/18 18:20:09;;;;;;;26.27;11.00;;;;;;;5.71;100.00;98368.63;3588941;77;98682;-94
2022/02/18 18:25:10;;;;;;;22.60;8.78;;;;;;;5.74;100.00;98352.24;3605429;79;99226;-89
2022/02/18 18:30:13;;;;;;;18.50;8.00;;;;;;;5.78;100.00;98328.45;3606028;80;98532;-91
2022/02/18 18:35:17;;;;;;;18.87;8.75;;;;;;;5.83;100.00;98310.34;3618752;79;98912;-90
2022/02/18 18:40:19;;;;;;;19.67;8.35;;;;;;;5.89;100.00;98303.89;3622650;78;98849;-91
2022/02/18 18:45:20;;;;;;;19.02;7.12;;;;;;;5.94;100.00;98274.22;3613105;80;99091;-92
2022/02/18 18:50:22;;;;;;;20.60;7.07;;;;;;;6.00;100.00;98280.81;3603423;80;99094;-89
2022/02/18 18:55:23;;;;;;;15.30;6.33;;;;;;;6.11;100.00;98246.03;3628606;79;99074;-91
2022/02/18 19:00:29;;;;;;;16.63;6.20;;;;;;;6.19;100.00;98224.92;3616049;80;98159;-88
2022/02/18 19:05:28;;;;;;;16.82;7.12;;;;;;;6.26;100.00;98196.19;3618683;78;98527;-89
2022/02/18 19:10:29;;;;;;;20.33;6.50;;;;;;;6.34;100.00;98182.07;3617018;80;98607;-87
2022/02/18 19:15:31;;;;;;;13.67;5.40;;;;;;;6.42;100.00;98184.16;3620269;80;99104;-90
2022/02/18 19:20:32;;;;;;;18.00;6.17;;;;;;;6.53;100.00;98141.91;3618988;79;98622;-88
2022/02/18 19:25:33;;;;;;;16.10;5.47;;;;;;;6.62;100.00;98150.42;3607901;80;98634;-88
2022/02/18 19:30:34;;;;;;;14.20;6.13;;;;;;;6.75;100.00;98123.33;3619354;79;98680;-91
2022/02/18 19:35:37;;;;;;;16.45;5.25;;;;;;;6.90;100.00;98112.43;3618959;78;98810;-90
2022/02/18 19:40:39;;;;;;;13.75;4.65;;;;;;;7.01;100.00;98103.52;3561488;80;98596;-88
2022/02/18 19:45:40;;;;;;;12.88;4.55;;;;;;;7.11;100.00;98079.36;3589669;80;98667;-94
2022/02/18 19:50:41;;;;;;;12.57;4.13;;;;;;;7.23;100.00;98080.18;3571346;80;99075;-91
2022/02/18 19:55:42;;;;;;;12.67;4.73;;;;;;;7.32;100.00;98062.67;3579591;79;98650;-88
2022/02/18 20:00:43;;;;;;;14.50;5.73;;;;;;;7.40;100.00;98060.80;3570404;81;98166;-90
2022/02/18 20:05:44;;;;;;;16.07;5.67;;;;;;;7.50;100.00;98044.03;3582711;80;98386;-93
2022/02/18 20:10:47;;;;;;;17.70;5.23;;;;;;;7.56;100.00;98038.27;3580142;80;98468;-91
2022/02/18 20:15:48;;;;;;;12.87;5.00;;;;;;;7.62;100.00;98023.71;3585528;79;98934;-89
2022/02/18 20:20:50;;;;;;;13.77;4.87;;;;;;;7.70;100.00;98005.22;3574125;81;98727;-89
2022/02/18 20:25:52;;;;;;;17.77;5.12;;;;;;;7.78;100.00;97988.25;3589007;80;97809;-87
2022/02/18 20:30:55;;;;;;;15.23;5.43;;;;;;;7.91;100.00;97982.95;3572880;79;98776;-92
2022/02/18 20:35:57;;;;;;;12.73;4.50;;;;;;;8.03;100.00;97987.83;3595341;80;34627;-90
2022/02/18 20:41:01;;;;;;;14.85;5.20;;;;;;;8.25;100.00;97961.61;3580007;81;98480;-88
2022/02/18 20:46:04;;;;;;;11.87;4.93;;;;;;;8.42;99.44;97950.31;3594539;78;98680;-90
2022/02/18 20:51:07;;;;;;;15.40;4.37;;;;;;;8.55;98.71;97938.88;3602325;79;98027;-88
2022/02/18 20:56:07;;;;;;;16.67;5.65;;;;;;;8.62;98.47;97921.52;3597533;81;99071;-93
2022/02/18 21:01:08;;;;;;;13.47;5.27;;;;;;;8.68;97.76;97930.17;3599301;79;98957;-88
2022/02/18 21:06:11;;;;;;;15.23;5.60;;;;;;;8.76;97.64;97914.34;3610517;80;33071;-89
2022/02/18 21:11:12;;;;;;;17.07;5.75;;;;;;;8.81;97.49;97929.70;3564303;80;98421;-87
2022/02/18 21:16:18;;;;;;;13.50;5.17;;;;;;;8.84;97.66;97935.70;3602069;79;98322;-91
2022/02/18 21:21:21;;;;;;;15.60;5.03;;;;;;;8.87;98.15;97948.57;3596005;79;98439;-89
2022/02/18 21:26:29;;;;;;;10.00;4.30;;;;;;;8.95;98.45;97980.12;3594968;80;98510;-90
2022/02/18 21:31:28;;;;;;;13.38;4.33;;;;;;;9.02;98.56;97975.09;3595551;80;98521;-93
2022/02/18 21:36:29;;;;;;;10.30;3.67;;;;;;;9.20;98.29;97988.59;3598958;80;34392;-89
2022/02/18 21:41:30;;;;;;;10.37;3.30;;;;;;;9.40;97.26;97974.22;3591482;80;98290;-87
2022/02/18 21:46:32;;;;;;;10.97;3.33;;;;;;;9.55;96.39;97978.14;3623347;79;98455;-88
2022/02/18 21:51:35;;;;;;;7.30;2.37;;;;;;;9.64;95.94;97998.14;3621949;78;99200;-86
2022/02/18 21:56:44;;;;;;;8.58;3.10;;;;;;;9.72;94.64;98006.39;3608766;80;98514;-90
2022/02/18 22:01:48;;;;;;;12.65;3.55;;;;;;;9.77;93.26;98003.89;3587457;80;98547;-86
2022/02/18 22:06:50;;;;;;;6.60;2.00;;;;;;;9.81;91.38;97991.47;3611382;79;98374;-94
2022/02/18 22:11:52;;;;;;;7.75;1.85;;;;;;;9.81;89.41;98002.45;3538248;79;98286;-90
2022/02/18 22:16:56;;;;;;;2.60;1.07;;;;;;;9.77;87.20;98015.49;3603221;80;98435;-88
2022/02/18 22:21:58;;;;;;;5.78;1.25;;;;;;;9.74;84.97;98025.36;3597037;79;98469;-87
2022/02/18 22:26:59;;;;;;;7.45;1.62;;;;;;;9.77;81.93;98023.73;3622908;79;99115;-85
2022/02/18 22:32:00;;;;;;;5.60;1.10;;;;;;;9.73;80.19;97996.36;3617621;80;98435;-91
2022/02/18 22:37:01;;;;;;;6.80;1.00;;;;;;;9.67;75.27;98004.94;3626634;79;107262;-86
2022/02/18 22:42:03;;;;;;;4.73;1.00;;;;;;;9.68;74.09;98025.70;3636672;79;32633;-87
2022/02/18 22:47:05;;;;;;;2.50;0.90;;;;;;;9.59;73.62;98013.16;3626365;79;98262;-86
2022/02/18 22:52:06;;;;;;;4.75;1.17;;;;;;;9.46;71.50;98030.73;3614150;80;98376;-88
2022/02/18 22:57:07;;;;;;;4.90;1.80;;;;;;;9.41;73.08;98032.02;3619885;78;98324;-90
2022/02/18 23:02:08;;;;;;;5.13;1.10;;;;;;;9.41;71.66;98046.33;3619135;78;98339;-88
2022/02/18 23:07:10;;;;;;;2.33;0.80;;;;;;;9.42;70.78;98058.27;3629484;80;98402;-87
2022/02/18 23:12:11;;;;;;;7.33;1.83;;;;;;;9.42;70.38;98089.84;3637581;79;28323;-84
2022/02/18 23:17:12;;;;;;;5.50;1.07;;;;;;;9.41;66.26;98078.69;3615091;80;98669;-84
2022/02/18 23:22:12;;;;;;;6.23;0.90;;;;;;;9.41;66.73;98117.12;3622811;80;98883;-85
2022/02/18 23:27:13;;;;;;;5.67;1.10;;;;;;;9.30;67.17;98100.09;3617106;79;98313;-87
2022/02/18 23:32:15;;;;;;;5.10;0.93;;;;;;;9.21;67.11;98116.35;3618354;80;98349;-85
2022/02/18 23:37:16;;;;;;;5.55;1.30;;;;;;;9.16;67.32;98124.32;3616858;79;98403;-86
2022/02/18 23:42:17;;;;;;;10.37;1.03;;;;;;;9.09;66.63;98128.56;3628066;79;33101;-84
2022/02/18 23:47:18;;;;;;;5.80;1.20;;;;;;;9.04;65.80;98129.83;3620071;79;98649;-86
2022/02/18 23:52:18;;;;;;;7.10;1.20;;;;;;;9.04;64.60;98121.60;3612450;80;98543;-86
2022/02/18 23:57:19;;;;;;;5.30;2.12;;;;;;;9.01;65.14;98127.95;3605527;79;98341;-89
